Roscoe, Illinois
Current Conditions -  °F | °C
As of 4:45 PM on Saturday 22 Nov 2014 (Local Time) from KJVL Reporting Station
Haze Haze  
Wind Chill: 44°   Ceiling: 1500
Heat Index: 48°   Visibility: 5mi
Dew Point: 46°   Wind: 9mph
Humidity: 93%   Direction: 200°SSW
Pressure: 29.8"   Gusts: NA
Location:  42.41°N, 89.01°W
Report Text: KJVL 222245Z 20008KT 5SM BR BKN015 BKN020 OVC030 09/08 A2980
Loading
Personal Weather Stations






























Interactive Weather Map New forecast layout! Learn more

10-Day Weather Forecast

Advertisements
Track Severe Weather on mobile